Aérodrome :
LOGIN :

S'inscrire | Disclaimer

   EN    FR    IT 

 










Légende :    VFR   VFR Marginal   IFR   IFR Intensif   IFR Très Intensif
Visi : 
Plafond : 
>= 8 km
>= 3000ft
5 à 8 km
1000 à 3000 ft
1500m à 5 km
500 à 1000 ft
800 à 1500m
200 à 500 ft
< 800m
< 200 ft
Symboles :   Orages  Brouillard  Fortes neiges  Fortes précipitations  Vent > 20 kt
SIGMETs :   Divers  Orages  Givrage  Turbulence  Onde Orograph.  Cendres Volcan.







- Altitude de l'aérodrome : 587 ft
- Code IATA : XCR
- Voir les cartes d'approche


LFOK - Chalons Vatry

DERNIER METAR :
  • 131630Z AUTO 20019KT 9999 -RADZ BKN012 OVC022 07/07 Q1001 TEMPO 3000 RA OVC004 BECMG 20020G35KT

METARs EXPIRÉS :
  • 131600Z AUTO 19018KT 9999 -RA BKN011 BKN018 BKN033 07/06 Q1002 TEMPO 3000 RA OVC004 BECMG 20020G35KT
  • 131530Z AUTO 21016KT 9999 -RA OVC011 07/06 Q1003 TEMPO 3000 RA OVC004 BECMG 20020G35KT
  • 131500Z AUTO 21017KT 9999 -RA BKN007 OVC013 07/06 Q1003 TEMPO 3000 RA OVC004 BECMG 20020G35KT
  • 131430Z AUTO 21018KT 9999 -RA OVC004 07/06 Q1004 TEMPO 3000 RA BECMG 20020G35KT
  • 131400Z AUTO 21017KT 5000 -RA BR OVC004 06/06 Q1004 TEMPO RA BECMG 20020G35KT

TAF TAF LFOK
Valide du 13 à 12h jusqu'au 14 à 12h UTC


131100Z 1312/1412 20020G35KT 9999 OVC012
TEMPO 1312/1321 3000 RA OVC004
FM132100 25020G35KT 9999 SCT030
TEMPO 1400/1402 26030G50KT 2000 SHRA BKN015CB
PROB30 1400/1402 TSRA
Pas de NOTAMs connus pour ce terrain.
4 SIGMETs publiés pour la FIR Paris (LFFF) :
 
Turbulence forte
LFFF SIGMET 6 VALID 131700/132000 LFPW
LFFF PARIS FIR/UIR SEV TURB FCST S OF N4745 AND W OF E00300 SFC/FL050 MOV NE 40KT INTSF=
Annulation du SIGMET 4 
LFFF SIGMET 5 VALID 131600/132100 LFPW
LFFF PARIS FIR/UIR CNL SIGMET 4 131700/132100=
SIGMET 4  ANNULÉ :
Turbulence forte
LFFF SIGMET 4 VALID 131700/132100 LFPW
LFFF PARIS FIR/UIR SEV TURB FCST S OF N4745 AND W OF E00300 SFC/FL050 MOV NE 40KT INTSF=
Turbulence forte
LFFF SIGMET 3 VALID 131600/132000 LFPW
LFFF PARIS FIR/UIR SEV TURB FCST WI N4900 W00015 - N5000 W00015 - N5115 E00200 - N5100 E00215 - N5000 E00215 - N4900 W00015 SFC/FL050 MOV E 50KT NC=



MET'MAP, la Météo Aéronautique d'un coup d'oeil ! - Copyright ORBIFLY Décembre 2007 - Disclaimer

ORBIFLY MET'MAP TEAM :

Programmation & Développement : Alexandra Zaïnal
Conception & Développement : Baudouin d'Aumeries
Co-Programmation & Développement : Marc-Olivier Méhu
Soutien technique & logistique : Manuel Goepfert

Contact : metmap@orbifly.com




SOURCES & CREDITS :

   NOAA